This is the latest recevied weather packets stored in our database for station/object KD0JCP-10. If no packets are shown the sender has not sent any weather packets the latest 10 day(s).
| Time | Temp. | Humidity | Pressure | Rain* | Wind** | Luminosity | Snow |
|---|---|---|---|---|---|---|---|
| 1777602986 | 8.89° C | 58% | 1021.3 hPa | 0 mm | - | - | - |
| 1777602686 | 8.89° C | 57% | 1021.1 hPa | 0 mm | - | - | - |
| 1777602386 | 9.44° C | 56% | 1021.1 hPa | 0 mm | - | - | - |
| 1777586187 | 14.44° C | 44% | 1019.3 hPa | 0 mm | - | - | - |
| 1777585587 | 14.44° C | 46% | 1019.5 hPa | 0 mm | - | - | - |
| 1777584987 | 13.89° C | 46% | 1019.5 hPa | 0 mm | - | - | - |
| 1777583487 | 14.44° C | 47% | 1019.7 hPa | 0 mm | - | - | - |
| 1777583187 | 14.44° C | 46% | 1019.7 hPa | 0 mm | - | - | - |
| 1777582887 | 14.44° C | 47% | 1019.5 hPa | 0 mm | - | - | - |
| 1777582287 | 14.44° C | 46% | 1019.8 hPa | 0 mm | - | - | - |
| 1777581387 | 13.89° C | 48% | 1020 hPa | 0 mm | - | - | - |
| 1777580187 | 13.33° C | 47% | 1020.2 hPa | 0 mm | - | - | - |
| 1777579887 | 13.89° C | 45% | 1020.1 hPa | 0 mm | - | - | - |
| 1777577787 | 14.44° C | 42% | 1020.1 hPa | 0 mm | - | - | - |
| 1777577187 | 14.44° C | 46% | 1020.2 hPa | 0 mm | - | - | - |
| 1777576587 | 14.44° C | 44% | 1020.2 hPa | 0 mm | - | - | - |
| 1777567288 | 13.33° C | 50% | 1021.3 hPa | 0 mm | - | - | - |
| 1777566388 | 13.89° C | 47% | 1021.5 hPa | 0 mm | - | - | - |
| 1777566088 | 13.89° C | 51% | 1021.4 hPa | 0 mm | - | - | - |
| 1777565488 | 13.33° C | 50% | 1021.4 hPa | 0 mm | - | - | - |
| 1777565188 | 12.78° C | 53% | 1021.4 hPa | 0 mm | - | - | - |
| 1777564888 | 12.78° C | 59% | 1021.4 hPa | 0 mm | - | - | - |
| 1777564588 | 12.78° C | 61% | 1021.3 hPa | 0 mm | - | - | - |
| 1777564288 | 12.22° C | 62% | 1021.2 hPa | 0 mm | - | - | - |
| 1777563988 | 12.22° C | 60% | 1021.2 hPa | 0 mm | - | - | - |
* Rain latest hour (hover to see other rain measurements)
** Current wind speed in m/s (hover to see current wind gust speed)